sensor_id;sensor_type;location;lat;lon;timestamp;pressure;altitude;pressure_sealevel;temperature;humidity
58295;BME280;45705;55.592;37.460;2023-08-17T00:01:47;99875.91;;;18.30;100.00
58295;BME280;45705;55.592;37.460;2023-08-17T00:04:13;99860.75;;;18.24;100.00
58295;BME280;45705;55.592;37.460;2023-08-17T00:06:39;99873.00;;;18.14;100.00
58295;BME280;45705;55.592;37.460;2023-08-17T00:09:05;99870.63;;;18.13;100.00
58295;BME280;45705;55.592;37.460;2023-08-17T00:11:33;99870.94;;;18.11;100.00
58295;BME280;45705;55.592;37.460;2023-08-17T00:13:59;99879.09;;;18.07;100.00
58295;BME280;45705;55.592;37.460;2023-08-17T00:16:25;99868.63;;;18.01;100.00
58295;BME280;45705;55.592;37.460;2023-08-17T00:18:51;99869.78;;;18.00;100.00
58295;BME280;45705;55.592;37.460;2023-08-17T00:21:17;99875.75;;;18.02;100.00
58295;BME280;45705;55.592;37.460;2023-08-17T00:23:43;99862.56;;;18.07;100.00
58295;BME280;45705;55.592;37.460;2023-08-17T00:26:09;99865.78;;;18.09;100.00
58295;BME280;45705;55.592;37.460;2023-08-17T00:28:34;99880.44;;;18.01;100.00
58295;BME280;45705;55.592;37.460;2023-08-17T00:31:01;99876.50;;;17.90;100.00
58295;BME280;45705;55.592;37.460;2023-08-17T00:33:27;99879.28;;;18.02;100.00
58295;BME280;45705;55.592;37.460;2023-08-17T00:35:53;99883.66;;;18.03;100.00
58295;BME280;45705;55.592;37.460;2023-08-17T00:38:19;99878.09;;;17.91;100.00
58295;BME280;45705;55.592;37.460;2023-08-17T00:40:47;99887.06;;;17.88;100.00
58295;BME280;45705;55.592;37.460;2023-08-17T00:43:12;99890.78;;;17.83;100.00
58295;BME280;45705;55.592;37.460;2023-08-17T00:45:38;99889.97;;;17.83;100.00
58295;BME280;45705;55.592;37.460;2023-08-17T00:48:06;99885.16;;;17.80;100.00
58295;BME280;45705;55.592;37.460;2023-08-17T00:50:34;99885.09;;;17.88;100.00
58295;BME280;45705;55.592;37.460;2023-08-17T00:53:00;99890.22;;;17.78;100.00
58295;BME280;45705;55.592;37.460;2023-08-17T00:55:28;99888.31;;;17.90;100.00
58295;BME280;45705;55.592;37.460;2023-08-17T00:57:56;99886.75;;;17.81;100.00
58295;BME280;45705;55.592;37.460;2023-08-17T01:00:24;99888.59;;;17.77;100.00
58295;BME280;45705;55.592;37.460;2023-08-17T01:02:51;99871.63;;;17.75;100.00
58295;BME280;45705;55.592;37.460;2023-08-17T01:05:17;99889.63;;;17.72;100.00
58295;BME280;45705;55.592;37.460;2023-08-17T01:07:43;99880.94;;;17.82;100.00
58295;BME280;45705;55.592;37.460;2023-08-17T01:10:09;99886.34;;;17.91;100.00
58295;BME280;45705;55.592;37.460;2023-08-17T01:17:57;99887.91;;;17.80;100.00
58295;BME280;45705;55.592;37.460;2023-08-17T01:20:24;99879.66;;;17.80;100.00
58295;BME280;45705;55.592;37.460;2023-08-17T01:22:52;99882.88;;;17.82;100.00
58295;BME280;45705;55.592;37.460;2023-08-17T01:25:23;99878.34;;;17.86;100.00
58295;BME280;45705;55.592;37.460;2023-08-17T01:27:48;99884.97;;;17.85;100.00
58295;BME280;45705;55.592;37.460;2023-08-17T01:30:16;99882.88;;;17.82;100.00
58295;BME280;45705;55.592;37.460;2023-08-17T01:32:57;99880.34;;;17.77;100.00
58295;BME280;45705;55.592;37.460;2023-08-17T01:37:53;99896.19;;;17.80;100.00
58295;BME280;45705;55.592;37.460;2023-08-17T01:40:21;99887.31;;;17.74;100.00
58295;BME280;45705;55.592;37.460;2023-08-17T01:42:49;99887.56;;;17.81;100.00
58295;BME280;45705;55.592;37.460;2023-08-17T01:45:16;99881.97;;;17.78;100.00
58295;BME280;45705;55.592;37.460;2023-08-17T01:47:43;99885.19;;;17.59;100.00
58295;BME280;45705;55.592;37.460;2023-08-17T01:50:09;99888.69;;;17.47;100.00
58295;BME280;45705;55.592;37.460;2023-08-17T01:52:35;99893.50;;;17.50;100.00
58295;BME280;45705;55.592;37.460;2023-08-17T01:55:00;99889.78;;;17.55;100.00
58295;BME280;45705;55.592;37.460;2023-08-17T01:57:26;99894.34;;;17.29;100.00
58295;BME280;45705;55.592;37.460;2023-08-17T01:59:52;99900.50;;;17.26;100.00
58295;BME280;45705;55.592;37.460;2023-08-17T02:02:18;99894.34;;;17.29;100.00
58295;BME280;45705;55.592;37.460;2023-08-17T02:04:43;99895.94;;;17.30;100.00
58295;BME280;45705;55.592;37.460;2023-08-17T02:07:09;99894.84;;;17.44;100.00
58295;BME280;45705;55.592;37.460;2023-08-17T02:09:35;99892.38;;;17.51;100.00
58295;BME280;45705;55.592;37.460;2023-08-17T02:12:01;99896.34;;;17.62;100.00
58295;BME280;45705;55.592;37.460;2023-08-17T02:14:27;99884.50;;;17.62;100.00
58295;BME280;45705;55.592;37.460;2023-08-17T02:16:53;99898.84;;;17.67;100.00
58295;BME280;45705;55.592;37.460;2023-08-17T02:19:24;99886.94;;;17.63;100.00
58295;BME280;45705;55.592;37.460;2023-08-17T02:21:51;99892.97;;;17.57;100.00
58295;BME280;45705;55.592;37.460;2023-08-17T02:24:18;99893.13;;;17.60;100.00
58295;BME280;45705;55.592;37.460;2023-08-17T02:26:44;99891.78;;;17.66;100.00
58295;BME280;45705;55.592;37.460;2023-08-17T02:29:10;99894.28;;;17.71;100.00
58295;BME280;45705;55.592;37.460;2023-08-17T02:31:36;99897.16;;;17.75;100.00
58295;BME280;45705;55.592;37.460;2023-08-17T02:34:01;99894.09;;;17.77;100.00
58295;BME280;45705;55.592;37.460;2023-08-17T02:36:31;99897.50;;;17.74;100.00
58295;BME280;45705;55.592;37.460;2023-08-17T02:38:57;99899.25;;;17.78;100.00
58295;BME280;45705;55.592;37.460;2023-08-17T02:41:23;99893.34;;;17.67;100.00
58295;BME280;45705;55.592;37.460;2023-08-17T02:43:49;99894.56;;;17.79;100.00
58295;BME280;45705;55.592;37.460;2023-08-17T02:46:14;99898.72;;;17.85;100.00
58295;BME280;45705;55.592;37.460;2023-08-17T02:48:40;99899.78;;;17.93;100.00
58295;BME280;45705;55.592;37.460;2023-08-17T02:51:06;99898.19;;;17.92;100.00
58295;BME280;45705;55.592;37.460;2023-08-17T02:53:32;99898.31;;;17.95;100.00
58295;BME280;45705;55.592;37.460;2023-08-17T02:55:58;99898.06;;;17.88;100.00
58295;BME280;45705;55.592;37.460;2023-08-17T02:58:23;99904.03;;;17.90;100.00
58295;BME280;45705;55.592;37.460;2023-08-17T03:00:52;99913.81;;;17.79;100.00
58295;BME280;45705;55.592;37.460;2023-08-17T03:03:19;99908.94;;;17.84;100.00
58295;BME280;45705;55.592;37.460;2023-08-17T03:05:45;99909.56;;;18.02;100.00
58295;BME280;45705;55.592;37.460;2023-08-17T03:08:11;99910.28;;;18.12;100.00
58295;BME280;45705;55.592;37.460;2023-08-17T03:10:37;99903.00;;;17.95;100.00
58295;BME280;45705;55.592;37.460;2023-08-17T03:13:03;99901.41;;;17.94;100.00
58295;BME280;45705;55.592;37.460;2023-08-17T03:15:29;99911.59;;;17.93;100.00
58295;BME280;45705;55.592;37.460;2023-08-17T03:17:55;99909.88;;;18.01;100.00
58295;BME280;45705;55.592;37.460;2023-08-17T03:20:21;99901.56;;;18.22;100.00
58295;BME280;45705;55.592;37.460;2023-08-17T03:22:47;99912.38;;;18.27;100.00
58295;BME280;45705;55.592;37.460;2023-08-17T03:25:13;99899.78;;;18.38;100.00
58295;BME280;45705;55.592;37.460;2023-08-17T03:27:40;99909.88;;;18.59;100.00
58295;BME280;45705;55.592;37.460;2023-08-17T03:30:06;99909.19;;;19.11;100.00
58295;BME280;45705;55.592;37.460;2023-08-17T03:32:32;99899.06;;;19.68;100.00
58295;BME280;45705;55.592;37.460;2023-08-17T03:34:58;99904.00;;;20.19;100.00
58295;BME280;45705;55.592;37.460;2023-08-17T03:37:24;99895.22;;;20.61;100.00
58295;BME280;45705;55.592;37.460;2023-08-17T03:39:50;99895.69;;;20.98;97.84
58295;BME280;45705;55.592;37.460;2023-08-17T03:42:16;99894.78;;;21.30;94.89
58295;BME280;45705;55.592;37.460;2023-08-17T03:44:41;99897.72;;;21.37;94.71
58295;BME280;45705;55.592;37.460;2023-08-17T03:47:07;99885.66;;;21.65;91.31
58295;BME280;45705;55.592;37.460;2023-08-17T03:49:33;99893.47;;;22.01;88.17
58295;BME280;45705;55.592;37.460;2023-08-17T03:51:58;99896.66;;;22.03;85.50
58295;BME280;45705;55.592;37.460;2023-08-17T03:54:24;99894.47;;;22.13;86.01
58295;BME280;45705;55.592;37.460;2023-08-17T03:56:50;99894.66;;;22.23;84.00
58295;BME280;45705;55.592;37.460;2023-08-17T03:59:16;99899.28;;;22.62;81.28
58295;BME280;45705;55.592;37.460;2023-08-17T04:01:41;99893.25;;;23.06;77.37
58295;BME280;45705;55.592;37.460;2023-08-17T04:04:07;99896.63;;;23.53;74.74
58295;BME280;45705;55.592;37.460;2023-08-17T04:06:34;99893.25;;;24.01;71.51
58295;BME280;45705;55.592;37.460;2023-08-17T04:09:00;99895.25;;;24.04;70.21
58295;BME280;45705;55.592;37.460;2023-08-17T04:11:26;99887.72;;;24.08;70.08
58295;BME280;45705;55.592;37.460;2023-08-17T04:13:51;99893.03;;;24.20;69.23
58295;BME280;45705;55.592;37.460;2023-08-17T04:16:19;99893.63;;;24.44;67.55
58295;BME280;45705;55.592;37.460;2023-08-17T04:18:45;99901.13;;;24.84;65.56
58295;BME280;45705;55.592;37.460;2023-08-17T04:21:11;99900.22;;;24.69;65.98
58295;BME280;45705;55.592;37.460;2023-08-17T04:23:37;99896.53;;;25.13;64.19
58295;BME280;45705;55.592;37.460;2023-08-17T04:26:03;99897.31;;;25.14;64.63
58295;BME280;45705;55.592;37.460;2023-08-17T04:28:29;99896.41;;;25.72;62.39
58295;BME280;45705;55.592;37.460;2023-08-17T04:30:55;99896.84;;;25.71;62.35
58295;BME280;45705;55.592;37.460;2023-08-17T04:33:21;99895.66;;;25.79;61.37
58295;BME280;45705;55.592;37.460;2023-08-17T04:35:47;99894.44;;;25.80;59.64
58295;BME280;45705;55.592;37.460;2023-08-17T04:38:13;99893.78;;;26.33;58.66
58295;BME280;45705;55.592;37.460;2023-08-17T04:40:39;99902.56;;;26.79;56.01
58295;BME280;45705;55.592;37.460;2023-08-17T04:43:07;99904.16;;;26.83;56.13
58295;BME280;45705;55.592;37.460;2023-08-17T04:45:33;99902.47;;;27.36;53.59
58295;BME280;45705;55.592;37.460;2023-08-17T04:47:58;99893.97;;;27.65;52.42
58295;BME280;45705;55.592;37.460;2023-08-17T04:50:24;99895.81;;;27.97;52.07
58295;BME280;45705;55.592;37.460;2023-08-17T04:52:53;99907.28;;;27.32;52.43
58295;BME280;45705;55.592;37.460;2023-08-17T04:55:19;99906.41;;;27.49;52.52
58295;BME280;45705;55.592;37.460;2023-08-17T04:57:45;99897.38;;;28.01;51.34
58295;BME280;45705;55.592;37.460;2023-08-17T05:00:13;99909.31;;;28.09;49.77
58295;BME280;45705;55.592;37.460;2023-08-17T05:02:40;99911.09;;;28.41;47.82
58295;BME280;45705;55.592;37.460;2023-08-17T05:05:09;99910.81;;;28.24;48.67
58295;BME280;45705;55.592;37.460;2023-08-17T05:07:35;99907.63;;;28.22;47.74
58295;BME280;45705;55.592;37.460;2023-08-17T05:10:01;99904.16;;;29.01;44.65
58295;BME280;45705;55.592;37.460;2023-08-17T05:12:27;99905.69;;;29.48;43.37
58295;BME280;45705;55.592;37.460;2023-08-17T05:14:54;99904.88;;;29.81;40.33
58295;BME280;45705;55.592;37.460;2023-08-17T05:17:19;99897.34;;;30.33;38.22
58295;BME280;45705;55.592;37.460;2023-08-17T05:19:45;99895.84;;;30.25;38.88
58295;BME280;45705;55.592;37.460;2023-08-17T05:22:12;99903.56;;;30.68;37.92
58295;BME280;45705;55.592;37.460;2023-08-17T05:24:39;99903.50;;;30.20;39.07
58295;BME280;45705;55.592;37.460;2023-08-17T05:27:06;99902.09;;;30.36;38.61
58295;BME280;45705;55.592;37.460;2023-08-17T05:29:33;99904.94;;;30.59;38.83
58295;BME280;45705;55.592;37.460;2023-08-17T05:31:59;99905.69;;;31.07;37.97
58295;BME280;45705;55.592;37.460;2023-08-17T05:34:24;99905.81;;;30.76;38.66
58295;BME280;45705;55.592;37.460;2023-08-17T05:36:50;99908.75;;;31.93;36.59
58295;BME280;45705;55.592;37.460;2023-08-17T05:39:16;99910.34;;;31.94;36.29
58295;BME280;45705;55.592;37.460;2023-08-17T05:41:43;99899.00;;;32.34;35.46
58295;BME280;45705;55.592;37.460;2023-08-17T05:44:10;99911.13;;;32.31;34.76
58295;BME280;45705;55.592;37.460;2023-08-17T05:46:36;99903.72;;;32.37;34.69
58295;BME280;45705;55.592;37.460;2023-08-17T05:49:02;99903.09;;;32.95;33.48
58295;BME280;45705;55.592;37.460;2023-08-17T05:51:28;99905.34;;;32.71;33.95
58295;BME280;45705;55.592;37.460;2023-08-17T05:53:54;99897.06;;;32.14;35.11
58295;BME280;45705;55.592;37.460;2023-08-17T05:56:20;99900.59;;;32.68;34.06
58295;BME280;45705;55.592;37.460;2023-08-17T05:58:46;99894.97;;;32.97;33.75
58295;BME280;45705;55.592;37.460;2023-08-17T06:01:12;99894.41;;;33.19;32.86
58295;BME280;45705;55.592;37.460;2023-08-17T06:03:38;99897.66;;;33.17;33.26
58295;BME280;45705;55.592;37.460;2023-08-17T06:06:04;99901.00;;;33.70;32.14
58295;BME280;45705;55.592;37.460;2023-08-17T06:08:33;99897.50;;;33.92;31.56
58295;BME280;45705;55.592;37.460;2023-08-17T06:10:59;99896.28;;;33.93;31.18
58295;BME280;45705;55.592;37.460;2023-08-17T06:13:24;99893.34;;;34.35;30.37
58295;BME280;45705;55.592;37.460;2023-08-17T06:15:50;99899.63;;;34.65;29.64
58295;BME280;45705;55.592;37.460;2023-08-17T06:18:16;99903.25;;;34.52;30.04
58295;BME280;45705;55.592;37.460;2023-08-17T06:20:42;99898.41;;;34.53;29.62
58295;BME280;45705;55.592;37.460;2023-08-17T06:23:08;99895.75;;;34.84;29.53
58295;BME280;45705;55.592;37.460;2023-08-17T06:25:34;99892.06;;;34.75;29.21
58295;BME280;45705;55.592;37.460;2023-08-17T06:28:01;99890.94;;;34.59;29.32
58295;BME280;45705;55.592;37.460;2023-08-17T06:30:27;99894.41;;;34.76;29.32
58295;BME280;45705;55.592;37.460;2023-08-17T06:32:53;99896.47;;;35.33;29.54
58295;BME280;45705;55.592;37.460;2023-08-17T06:35:19;99887.25;;;35.41;28.69
58295;BME280;45705;55.592;37.460;2023-08-17T06:37:44;99896.41;;;34.88;29.23
58295;BME280;45705;55.592;37.460;2023-08-17T06:40:10;99887.91;;;35.23;29.22
58295;BME280;45705;55.592;37.460;2023-08-17T06:42:36;99893.91;;;35.13;28.92
58295;BME280;45705;55.592;37.460;2023-08-17T06:45:03;99890.47;;;35.84;27.83
58295;BME280;45705;55.592;37.460;2023-08-17T06:47:33;99894.16;;;34.83;29.51
58295;BME280;45705;55.592;37.460;2023-08-17T06:50:00;99886.53;;;35.59;28.48
58295;BME280;45705;55.592;37.460;2023-08-17T06:52:26;99900.16;;;33.57;30.52
58295;BME280;45705;55.592;37.460;2023-08-17T06:54:51;99892.19;;;34.93;28.83
58295;BME280;45705;55.592;37.460;2023-08-17T06:57:17;99902.09;;;33.18;31.14
58295;BME280;45705;55.592;37.460;2023-08-17T06:59:44;99904.28;;;33.40;31.16
58295;BME280;45705;55.592;37.460;2023-08-17T07:02:11;99889.75;;;34.09;31.20
58295;BME280;45705;55.592;37.460;2023-08-17T07:04:38;99891.50;;;34.67;30.01
58295;BME280;45705;55.592;37.460;2023-08-17T07:07:04;99894.66;;;34.69;29.92
58295;BME280;45705;55.592;37.460;2023-08-17T07:09:30;99892.06;;;34.97;28.39
58295;BME280;45705;55.592;37.460;2023-08-17T07:11:56;99893.38;;;34.83;28.37
58295;BME280;45705;55.592;37.460;2023-08-17T07:14:22;99887.75;;;35.49;27.65
58295;BME280;45705;55.592;37.460;2023-08-17T07:16:47;99880.47;;;35.17;28.05
58295;BME280;45705;55.592;37.460;2023-08-17T07:19:13;99894.34;;;34.89;28.58
58295;BME280;45705;55.592;37.460;2023-08-17T07:21:39;99901.47;;;34.33;28.80
58295;BME280;45705;55.592;37.460;2023-08-17T07:24:15;99887.75;;;34.70;28.63
58295;BME280;45705;55.592;37.460;2023-08-17T07:26:41;99898.91;;;34.26;29.68
58295;BME280;45705;55.592;37.460;2023-08-17T07:29:07;99906.22;;;32.68;31.77
58295;BME280;45705;55.592;37.460;2023-08-17T07:31:34;99906.84;;;33.05;31.54
58295;BME280;45705;55.592;37.460;2023-08-17T07:34:06;99903.75;;;32.21;32.54
58295;BME280;45705;55.592;37.460;2023-08-17T07:36:32;99894.88;;;33.01;31.54
58295;BME280;45705;55.592;37.460;2023-08-17T07:38:59;99896.00;;;32.74;31.97
58295;BME280;45705;55.592;37.460;2023-08-17T07:41:25;99887.53;;;32.41;32.49
58295;BME280;45705;55.592;37.460;2023-08-17T07:43:51;99891.59;;;32.40;32.57
58295;BME280;45705;55.592;37.460;2023-08-17T07:46:17;99897.16;;;30.16;35.85
58295;BME280;45705;55.592;37.460;2023-08-17T07:48:43;99892.13;;;30.78;35.34
58295;BME280;45705;55.592;37.460;2023-08-17T07:51:08;99893.09;;;30.48;35.63
58295;BME280;45705;55.592;37.460;2023-08-17T07:53:34;99893.59;;;29.85;37.11
58295;BME280;45705;55.592;37.460;2023-08-17T07:56:00;99890.53;;;28.65;39.43
58295;BME280;45705;55.592;37.460;2023-08-17T07:58:26;99896.97;;;28.62;39.08
58295;BME280;45705;55.592;37.460;2023-08-17T08:00:51;99896.97;;;28.59;40.35
58295;BME280;45705;55.592;37.460;2023-08-17T08:03:17;99886.69;;;28.45;40.72
58295;BME280;45705;55.592;37.460;2023-08-17T08:05:43;99894.59;;;28.57;40.91
58295;BME280;45705;55.592;37.460;2023-08-17T08:08:09;99889.91;;;28.40;40.83
58295;BME280;45705;55.592;37.460;2023-08-17T08:10:35;99902.66;;;27.88;41.50
58295;BME280;45705;55.592;37.460;2023-08-17T08:13:00;99892.13;;;27.22;41.73
58295;BME280;45705;55.592;37.460;2023-08-17T08:15:26;99895.31;;;27.28;42.45
58295;BME280;45705;55.592;37.460;2023-08-17T08:17:52;99892.06;;;27.47;42.79
58295;BME280;45705;55.592;37.460;2023-08-17T08:20:18;99888.00;;;27.59;42.56
58295;BME280;45705;55.592;37.460;2023-08-17T08:22:43;99883.22;;;27.60;42.41
58295;BME280;45705;55.592;37.460;2023-08-17T08:25:09;99884.09;;;27.39;42.14
58295;BME280;45705;55.592;37.460;2023-08-17T08:27:35;99887.78;;;27.03;41.93
58295;BME280;45705;55.592;37.460;2023-08-17T08:30:01;99882.97;;;27.04;42.47
58295;BME280;45705;55.592;37.460;2023-08-17T08:32:27;99873.88;;;26.53;43.73
58295;BME280;45705;55.592;37.460;2023-08-17T08:34:53;99873.91;;;26.60;43.81
58295;BME280;45705;55.592;37.460;2023-08-17T08:37:19;99875.00;;;27.02;43.98
58295;BME280;45705;55.592;37.460;2023-08-17T08:39:52;99877.00;;;26.98;43.14
58295;BME280;45705;55.592;37.460;2023-08-17T08:42:20;99877.00;;;26.98;42.45
58295;BME280;45705;55.592;37.460;2023-08-17T08:44:46;99874.59;;;27.07;41.65
58295;BME280;45705;55.592;37.460;2023-08-17T08:47:13;99880.63;;;26.84;42.37
58295;BME280;45705;55.592;37.460;2023-08-17T08:49:40;99878.63;;;26.92;41.86
58295;BME280;45705;55.592;37.460;2023-08-17T08:52:12;99878.63;;;26.96;42.13
58295;BME280;45705;55.592;37.460;2023-08-17T08:54:43;99875.44;;;26.90;42.70
58295;BME280;45705;55.592;37.460;2023-08-17T08:57:12;99875.88;;;26.63;43.17
58295;BME280;45705;55.592;37.460;2023-08-17T08:59:41;99874.59;;;27.11;42.47
58295;BME280;45705;55.592;37.460;2023-08-17T09:02:16;99869.84;;;26.97;42.63
58295;BME280;45705;55.592;37.460;2023-08-17T09:04:45;99874.25;;;26.84;41.98
58295;BME280;45705;55.592;37.460;2023-08-17T09:07:15;99869.13;;;26.71;42.44
58295;BME280;45705;55.592;37.460;2023-08-17T09:09:44;99865.94;;;26.66;42.55
58295;BME280;45705;55.592;37.460;2023-08-17T09:12:10;99864.31;;;26.68;42.69
58295;BME280;45705;55.592;37.460;2023-08-17T09:14:36;99864.31;;;26.76;43.01
58295;BME280;45705;55.592;37.460;2023-08-17T09:17:03;99858.75;;;26.68;42.70
58295;BME280;45705;55.592;37.460;2023-08-17T09:19:32;99850.72;;;26.92;42.83
58295;BME280;45705;55.592;37.460;2023-08-17T09:22:00;99870.63;;;27.01;42.09
58295;BME280;45705;55.592;37.460;2023-08-17T09:24:36;99861.09;;;26.88;43.58
58295;BME280;45705;55.592;37.460;2023-08-17T09:27:03;99861.94;;;26.60;43.17
58295;BME280;45705;55.592;37.460;2023-08-17T09:29:29;99865.13;;;26.58;43.99
58295;BME280;45705;55.592;37.460;2023-08-17T09:32:06;99869.91;;;26.54;43.17
58295;BME280;45705;55.592;37.460;2023-08-17T09:34:33;99849.94;;;26.56;43.31
58295;BME280;45705;55.592;37.460;2023-08-17T09:37:05;99849.19;;;26.59;43.32
58295;BME280;45705;55.592;37.460;2023-08-17T09:39:31;99852.38;;;26.43;42.45
58295;BME280;45705;55.592;37.460;2023-08-17T09:41:59;99857.94;;;26.14;43.13
58295;BME280;45705;55.592;37.460;2023-08-17T09:44:25;99855.56;;;26.38;42.36
58295;BME280;45705;55.592;37.460;2023-08-17T09:46:51;99858.72;;;26.40;42.71
58295;BME280;45705;55.592;37.460;2023-08-17T09:49:17;99856.34;;;26.49;42.65
58295;BME280;45705;55.592;37.460;2023-08-17T09:51:44;99857.94;;;26.39;42.87
58295;BME280;45705;55.592;37.460;2023-08-17T09:54:23;99857.94;;;26.57;42.87
58295;BME280;45705;55.592;37.460;2023-08-17T09:56:50;99858.34;;;26.45;43.49
58295;BME280;45705;55.592;37.460;2023-08-17T09:59:17;99851.94;;;26.77;42.68
58295;BME280;45705;55.592;37.460;2023-08-17T10:01:43;99851.56;;;26.85;42.27
58295;BME280;45705;55.592;37.460;2023-08-17T10:04:11;99855.13;;;26.79;42.38
58295;BME280;45705;55.592;37.460;2023-08-17T10:06:39;99856.34;;;26.70;43.37
58295;BME280;45705;55.592;37.460;2023-08-17T10:09:09;99844.00;;;26.46;43.21
58295;BME280;45705;55.592;37.460;2023-08-17T10:11:37;99851.53;;;26.89;43.25
58295;BME280;45705;55.592;37.460;2023-08-17T10:14:09;99857.09;;;26.96;42.45
58295;BME280;45705;55.592;37.460;2023-08-17T10:16:44;99852.28;;;27.00;42.70
58295;BME280;45705;55.592;37.460;2023-08-17T10:21:54;99840.25;;;27.21;41.75
58295;BME280;45705;55.592;37.460;2023-08-17T10:24:22;99847.50;;;27.04;41.40
58295;BME280;45705;55.592;37.460;2023-08-17T10:26:49;99843.13;;;27.07;42.20
58295;BME280;45705;55.592;37.460;2023-08-17T10:29:16;99846.69;;;27.04;41.93
58295;BME280;45705;55.592;37.460;2023-08-17T10:31:44;99842.31;;;27.06;42.29
58295;BME280;45705;55.592;37.460;2023-08-17T10:34:11;99840.72;;;27.05;43.67
58295;BME280;45705;55.592;37.460;2023-08-17T10:36:38;99837.94;;;27.05;41.84
58295;BME280;45705;55.592;37.460;2023-08-17T10:39:26;99841.88;;;27.26;41.51
58295;BME280;45705;55.592;37.460;2023-08-17T10:41:52;99837.09;;;27.16;41.34
58295;BME280;45705;55.592;37.460;2023-08-17T10:47:29;99839.94;;;27.01;41.57
58295;BME280;45705;55.592;37.460;2023-08-17T10:50:22;99841.03;;;27.22;41.33
58295;BME280;45705;55.592;37.460;2023-08-17T10:52:49;99839.78;;;27.44;41.14
58295;BME280;45705;55.592;37.460;2023-08-17T10:55:16;99841.16;;;26.93;41.74
58295;BME280;45705;55.592;37.460;2023-08-17T10:57:44;99830.75;;;27.04;42.09
58295;BME280;45705;55.592;37.460;2023-08-17T11:02:43;99825.16;;;27.11;41.62
58295;BME280;45705;55.592;37.460;2023-08-17T11:05:09;99821.25;;;26.91;41.48
58295;BME280;45705;55.592;37.460;2023-08-17T11:07:42;99828.38;;;26.99;41.35
58295;BME280;45705;55.592;37.460;2023-08-17T11:10:27;99826.00;;;26.98;41.01
58295;BME280;45705;55.592;37.460;2023-08-17T11:12:55;99814.81;;;27.08;41.56
58295;BME280;45705;55.592;37.460;2023-08-17T11:18:09;99799.56;;;27.31;41.94
58295;BME280;45705;55.592;37.460;2023-08-17T11:20:37;99808.66;;;27.46;41.34
58295;BME280;45705;55.592;37.460;2023-08-17T11:23:03;99810.78;;;27.09;41.23
58295;BME280;45705;55.592;37.460;2023-08-17T11:25:29;99808.47;;;26.94;41.71
58295;BME280;45705;55.592;37.460;2023-08-17T11:27:56;99812.03;;;26.98;41.48
58295;BME280;45705;55.592;37.460;2023-08-17T11:30:22;99800.38;;;27.21;41.24
58295;BME280;45705;55.592;37.460;2023-08-17T11:32:50;99806.78;;;27.25;40.61
58295;BME280;45705;55.592;37.460;2023-08-17T11:35:41;99803.63;;;27.08;40.46
58295;BME280;45705;55.592;37.460;2023-08-17T11:38:07;99790.88;;;27.07;40.96
58295;BME280;45705;55.592;37.460;2023-08-17T11:40:33;99794.91;;;26.92;41.21
58295;BME280;45705;55.592;37.460;2023-08-17T11:42:59;99801.34;;;26.82;41.72
58295;BME280;45705;55.592;37.460;2023-08-17T11:45:25;99785.28;;;27.07;41.39
58295;BME280;45705;55.592;37.460;2023-08-17T11:47:51;99794.91;;;26.88;41.39
58295;BME280;45705;55.592;37.460;2023-08-17T11:50:17;99796.44;;;27.15;41.62
58295;BME280;45705;55.592;37.460;2023-08-17T11:52:43;99781.31;;;27.08;41.42
58295;BME280;45705;55.592;37.460;2023-08-17T11:55:09;99783.72;;;27.06;41.16
58295;BME280;45705;55.592;37.460;2023-08-17T11:57:36;99790.06;;;27.10;41.18
58295;BME280;45705;55.592;37.460;2023-08-17T12:00:04;99778.84;;;27.18;40.69
58295;BME280;45705;55.592;37.460;2023-08-17T12:02:32;99783.56;;;27.42;40.79
58295;BME280;45705;55.592;37.460;2023-08-17T12:05:04;99775.63;;;27.34;40.68
58295;BME280;45705;55.592;37.460;2023-08-17T12:07:32;99775.19;;;27.35;41.02
58295;BME280;45705;55.592;37.460;2023-08-17T12:09:58;99774.75;;;27.47;40.92
58295;BME280;45705;55.592;37.460;2023-08-17T12:12:24;99776.91;;;27.07;40.79
58295;BME280;45705;55.592;37.460;2023-08-17T12:14:49;99779.25;;;27.27;40.85
58295;BME280;45705;55.592;37.460;2023-08-17T12:17:19;99771.22;;;27.40;40.62
58295;BME280;45705;55.592;37.460;2023-08-17T12:19:49;99771.66;;;27.24;40.97
58295;BME280;45705;55.592;37.460;2023-08-17T12:22:16;99771.69;;;27.17;41.27
58295;BME280;45705;55.592;37.460;2023-08-17T12:24:42;99769.28;;;27.26;41.17
58295;BME280;45705;55.592;37.460;2023-08-17T12:27:09;99764.91;;;27.25;41.59
58295;BME280;45705;55.592;37.460;2023-08-17T12:29:51;99764.41;;;27.37;40.81
58295;BME280;45705;55.592;37.460;2023-08-17T12:32:19;99758.06;;;27.33;40.68
58295;BME280;45705;55.592;37.460;2023-08-17T12:34:45;99765.59;;;27.43;40.04
58295;BME280;45705;55.592;37.460;2023-08-17T12:37:12;99763.69;;;27.22;39.87
58295;BME280;45705;55.592;37.460;2023-08-17T12:39:43;99755.75;;;27.10;40.67
58295;BME280;45705;55.592;37.460;2023-08-17T12:42:09;99753.31;;;27.30;40.42
58295;BME280;45705;55.592;37.460;2023-08-17T12:44:34;99754.16;;;27.13;40.77
58295;BME280;45705;55.592;37.460;2023-08-17T12:47:00;99739.78;;;27.14;41.11
58295;BME280;45705;55.592;37.460;2023-08-17T12:49:26;99750.91;;;27.32;41.20
58295;BME280;45705;55.592;37.460;2023-08-17T12:51:52;99736.56;;;27.30;40.60
58295;BME280;45705;55.592;37.460;2023-08-17T12:54:17;99745.31;;;27.36;41.00
58295;BME280;45705;55.592;37.460;2023-08-17T12:56:44;99743.69;;;27.35;40.19
58295;BME280;45705;55.592;37.460;2023-08-17T12:59:10;99750.06;;;27.35;40.12
58295;BME280;45705;55.592;37.460;2023-08-17T13:01:36;99725.75;;;27.36;40.86
58295;BME280;45705;55.592;37.460;2023-08-17T13:04:01;99737.34;;;27.34;40.05
58295;BME280;45705;55.592;37.460;2023-08-17T13:06:27;99737.34;;;27.34;39.90